createdAt,value
2017-11-23T00:00:21.357Z,96651.61
2017-11-23T00:02:49.877Z,96654.42
2017-11-23T00:05:18.711Z,96648.00
2017-11-23T00:07:47.262Z,96647.95
2017-11-23T00:10:21.661Z,96641.94
2017-11-23T00:12:49.499Z,96639.23
2017-11-23T00:15:17.887Z,96648.33
2017-11-23T00:17:48.076Z,96641.09
2017-11-23T00:20:15.654Z,96644.50
2017-11-23T00:22:43.154Z,96632.25
2017-11-23T00:25:10.874Z,96634.48
2017-11-23T00:27:38.401Z,96626.80
2017-11-23T00:30:06.103Z,96629.10
2017-11-23T00:32:33.756Z,96631.63
2017-11-23T00:35:01.295Z,96630.16
2017-11-23T00:37:28.909Z,96632.89
2017-11-23T00:39:56.916Z,96625.48
2017-11-23T00:42:24.620Z,96627.38
2017-11-23T00:44:52.171Z,96624.83
2017-11-23T00:47:20.700Z,96626.44
2017-11-23T00:49:48.308Z,96628.17
2017-11-23T00:52:15.815Z,96627.23
2017-11-23T00:54:43.529Z,96620.44
2017-11-23T00:57:11.072Z,96631.06
2017-11-23T00:59:38.580Z,96629.69
2017-11-23T01:02:06.515Z,96633.36
2017-11-23T01:04:34.835Z,96633.02
2017-11-23T01:07:02.452Z,96635.34
2017-11-23T01:09:29.996Z,96632.61
2017-11-23T01:11:57.507Z,96646.16
2017-11-23T01:14:25.036Z,96641.22
2017-11-23T01:16:52.590Z,96641.38
2017-11-23T01:19:21.708Z,96637.80
2017-11-23T01:21:49.323Z,96637.39
2017-11-23T01:24:17.096Z,96630.98
2017-11-23T01:26:44.665Z,96630.11
2017-11-23T01:29:12.237Z,96634.63
2017-11-23T01:31:40.063Z,96638.78
2017-11-23T01:34:07.639Z,96638.60
2017-11-23T01:36:36.871Z,96650.14
2017-11-23T01:39:04.712Z,96650.67
2017-11-23T01:41:32.224Z,96657.58
2017-11-23T01:43:59.730Z,96656.64
2017-11-23T01:46:27.697Z,96653.75
2017-11-23T01:48:55.213Z,96647.13
2017-11-23T01:51:22.735Z,96652.31
2017-11-23T01:53:50.387Z,96651.16
2017-11-23T01:56:17.936Z,96644.98
2017-11-23T01:58:45.442Z,96649.30
2017-11-23T02:01:12.996Z,96648.63
2017-11-23T02:03:40.519Z,96645.63
2017-11-23T02:06:08.071Z,96648.39
2017-11-23T02:08:35.602Z,96638.72
2017-11-23T02:11:03.109Z,96637.70
2017-11-23T02:13:30.622Z,96639.79
2017-11-23T02:15:58.407Z,96638.84
2017-11-23T02:18:25.916Z,96634.91
2017-11-23T02:20:53.427Z,96639.20
2017-11-23T02:23:21.170Z,96637.36
2017-11-23T02:25:48.682Z,96641.72
2017-11-23T02:28:16.202Z,96638.75
2017-11-23T02:30:43.763Z,96635.38
2017-11-23T02:33:11.322Z,96638.63
2017-11-23T02:35:38.906Z,96636.08
2017-11-23T02:38:06.623Z,96625.84
2017-11-23T02:40:34.203Z,96631.56
2017-11-23T02:43:01.915Z,96631.84
2017-11-23T02:45:29.607Z,96637.14
2017-11-23T02:47:57.127Z,96645.20
2017-11-23T02:50:24.629Z,96646.16
2017-11-23T02:52:52.183Z,96642.14
2017-11-23T02:55:19.701Z,96643.86
2017-11-23T02:57:47.206Z,96631.92
2017-11-23T03:00:15.056Z,96635.62
2017-11-23T03:02:42.555Z,96646.63
2017-11-23T03:05:10.060Z,96642.63
2017-11-23T03:07:37.734Z,96640.05
2017-11-23T03:10:05.243Z,96636.77
2017-11-23T03:12:32.778Z,96626.09
2017-11-23T03:15:00.517Z,96634.94
2017-11-23T03:17:28.020Z,96623.30
2017-11-23T03:19:55.548Z,96622.30
2017-11-23T03:22:23.326Z,96636.91
2017-11-23T03:24:50.842Z,96618.45
2017-11-23T03:27:18.351Z,96618.73
2017-11-23T03:29:46.000Z,96634.56
2017-11-23T03:32:13.504Z,96641.41
2017-11-23T03:34:41.017Z,96632.60
2017-11-23T03:37:08.676Z,96628.79
2017-11-23T03:39:36.234Z,96625.89
2017-11-23T03:42:03.786Z,96627.45
2017-11-23T03:44:31.642Z,96619.30
2017-11-23T03:46:59.143Z,96617.73
2017-11-23T03:49:26.659Z,96615.89
2017-11-23T03:51:54.351Z,96619.45
2017-11-23T03:54:21.899Z,96624.84
2017-11-23T03:56:49.457Z,96625.27
2017-11-23T03:59:17.295Z,96629.28
2017-11-23T04:01:44.795Z,96626.03
2017-11-23T04:04:12.300Z,96634.69
2017-11-23T04:06:39.921Z,96630.19
2017-11-23T04:09:07.459Z,96628.88
2017-11-23T04:11:34.959Z,96630.00
2017-11-23T04:14:02.882Z,96632.73
2017-11-23T04:16:30.447Z,96632.27
2017-11-23T04:18:58.004Z,96634.67
2017-11-23T04:21:25.968Z,96640.94
2017-11-23T04:23:53.529Z,96631.94
2017-11-23T04:26:21.038Z,96639.69
2017-11-23T04:28:49.031Z,96629.23
2017-11-23T04:31:16.547Z,96635.59
2017-11-23T04:33:44.059Z,96637.06
2017-11-23T04:36:11.939Z,96627.73
2017-11-23T04:38:39.451Z,96628.30
2017-11-23T04:41:07.056Z,96615.70
2017-11-23T04:43:34.617Z,96609.61
2017-11-23T04:46:02.122Z,96612.01
2017-11-23T04:48:29.635Z,96616.64
2017-11-23T04:50:57.191Z,96606.69
2017-11-23T04:53:24.754Z,96612.36
2017-11-23T04:55:52.308Z,96612.44
2017-11-23T04:58:19.985Z,96607.55
2017-11-23T05:00:47.530Z,96604.95
2017-11-23T05:03:15.089Z,96609.94
2017-11-23T05:05:42.851Z,96607.33
2017-11-23T05:08:10.355Z,96612.48
2017-11-23T05:10:37.907Z,96603.49
2017-11-23T05:13:05.461Z,96605.25
2017-11-23T05:15:32.985Z,96608.80
2017-11-23T05:18:00.852Z,96606.42
2017-11-23T05:20:28.411Z,96621.81
2017-11-23T05:22:55.970Z,96615.97
2017-11-23T05:25:23.529Z,96617.67
2017-11-23T05:27:51.075Z,96609.34
2017-11-23T05:30:18.584Z,96614.82
2017-11-23T05:32:46.105Z,96615.67
2017-11-23T05:35:13.885Z,96603.30
2017-11-23T05:37:41.427Z,96609.47
2017-11-23T05:40:08.952Z,96604.45
2017-11-23T05:42:36.492Z,96604.08
2017-11-23T05:45:04.027Z,96592.19
2017-11-23T05:47:31.601Z,96571.85
2017-11-23T05:49:59.399Z,96577.28
2017-11-23T05:52:26.911Z,96589.77
2017-11-23T05:54:54.903Z,96594.14
2017-11-23T05:57:22.615Z,96609.08
2017-11-23T05:59:50.175Z,96604.23
2017-11-23T06:02:17.715Z,96604.41
2017-11-23T06:04:45.395Z,96610.14
2017-11-23T06:07:12.955Z,96611.78
2017-11-23T06:09:40.463Z,96609.77
2017-11-23T06:12:08.462Z,96615.13
2017-11-23T06:14:35.975Z,96617.61
2017-11-23T06:17:03.498Z,96620.78
2017-11-23T06:19:31.235Z,96605.94
2017-11-23T06:21:58.745Z,96594.80
2017-11-23T06:24:26.264Z,96601.94
2017-11-23T06:26:53.844Z,96602.37
2017-11-23T06:29:21.361Z,96603.94
2017-11-23T06:31:48.875Z,96601.52
2017-11-23T06:34:16.722Z,96601.11
2017-11-23T06:36:44.299Z,96607.56
2017-11-23T06:39:11.838Z,96615.58
2017-11-23T06:41:39.601Z,96620.70
2017-11-23T06:44:07.162Z,96624.71
2017-11-23T06:46:34.689Z,96638.40
2017-11-23T06:49:02.484Z,96655.37
2017-11-23T06:51:30.049Z,96650.95
2017-11-23T06:53:57.607Z,96653.78
2017-11-23T06:56:25.192Z,96663.72
2017-11-23T06:58:52.708Z,96657.67
2017-11-23T07:01:20.215Z,96662.04
2017-11-23T07:03:47.779Z,96663.42
2017-11-23T07:06:15.308Z,96650.98
2017-11-23T07:08:42.830Z,96658.74
2017-11-23T07:11:10.720Z,96661.86
2017-11-23T07:13:38.279Z,96653.19
2017-11-23T07:16:05.799Z,96656.48
2017-11-23T07:18:33.499Z,96656.84
2017-11-23T07:21:01.008Z,96655.03
2017-11-23T07:23:28.527Z,96652.88
2017-11-23T07:25:56.254Z,96655.52
2017-11-23T07:28:23.764Z,96653.87
2017-11-23T07:30:51.403Z,96658.51
2017-11-23T07:33:18.939Z,96659.02
2017-11-23T07:35:46.459Z,96662.84
2017-11-23T07:38:13.994Z,96670.38
2017-11-23T07:40:41.839Z,96664.59
2017-11-23T07:43:10.013Z,96664.59
2017-11-23T07:45:37.573Z,96671.88
2017-11-23T07:48:05.168Z,96669.78
2017-11-23T07:50:32.689Z,96671.27
2017-11-23T07:53:00.249Z,96677.20
2017-11-23T07:55:29.053Z,96675.56
2017-11-23T07:57:56.597Z,96684.52
2017-11-23T08:00:24.158Z,96678.87
2017-11-23T08:02:51.768Z,96683.47
2017-11-23T08:05:19.289Z,96679.59
2017-11-23T08:07:46.799Z,96683.19
2017-11-23T08:10:14.572Z,96683.94
2017-11-23T08:12:42.099Z,96679.45
2017-11-23T08:15:09.642Z,96682.71
2017-11-23T08:17:37.291Z,96692.91
2017-11-23T08:20:04.808Z,96689.41
2017-11-23T08:22:32.324Z,96700.80
2017-11-23T08:25:00.232Z,96710.03
2017-11-23T08:27:27.750Z,96714.16
2017-11-23T08:29:55.273Z,96711.81
2017-11-23T08:32:22.842Z,96718.63
2017-11-23T08:34:50.360Z,96725.49
2017-11-23T08:37:17.876Z,96722.46
2017-11-23T08:39:45.433Z,96731.92
2017-11-23T08:42:12.948Z,96734.52
2017-11-23T08:44:40.476Z,96734.45
2017-11-23T08:47:08.085Z,96728.47
2017-11-23T08:49:35.663Z,96737.80
2017-11-23T08:52:03.202Z,96739.38
2017-11-23T08:54:36.802Z,96739.95
2017-11-23T08:57:04.314Z,96741.02
2017-11-23T08:59:31.847Z,96747.30
2017-11-23T09:01:59.584Z,96743.20
2017-11-23T09:04:27.358Z,96744.07
2017-11-23T09:06:55.007Z,96753.63
2017-11-23T09:09:22.777Z,96752.25
2017-11-23T09:11:50.309Z,96756.39
2017-11-23T09:14:17.871Z,96758.11
2017-11-23T09:16:45.551Z,96755.59
2017-11-23T09:19:13.114Z,96758.47
2017-11-23T09:21:40.669Z,96762.70
2017-11-23T09:24:08.239Z,96767.85
2017-11-23T09:26:35.790Z,96763.85
2017-11-23T09:29:03.398Z,96763.13
2017-11-23T09:31:31.227Z,96771.67
2017-11-23T09:33:58.775Z,96770.72
2017-11-23T09:36:26.295Z,96778.53
2017-11-23T09:38:54.095Z,96768.56
2017-11-23T09:41:21.866Z,96772.64
2017-11-23T09:43:49.397Z,96770.52
2017-11-23T09:46:16.979Z,96780.49
2017-11-23T09:48:44.500Z,96773.72
2017-11-23T09:51:12.017Z,96777.81
2017-11-23T09:53:39.761Z,96778.36
2017-11-23T09:56:07.337Z,96777.77
2017-11-23T09:58:34.876Z,96777.42
2017-11-23T10:01:02.747Z,96781.91
2017-11-23T10:03:30.307Z,96783.06
2017-11-23T10:05:57.861Z,96785.39
2017-11-23T10:08:25.423Z,96783.38
2017-11-23T10:10:52.940Z,96781.41
2017-11-23T10:13:20.456Z,96768.98
2017-11-23T10:15:48.331Z,96783.59
2017-11-23T10:18:15.860Z,96790.53
2017-11-23T10:20:43.376Z,96785.53
2017-11-23T10:23:10.931Z,96792.42
2017-11-23T10:25:38.439Z,96793.20
2017-11-23T10:28:05.948Z,96792.92
2017-11-23T10:30:33.589Z,96785.56
2017-11-23T10:33:01.109Z,96792.27
2017-11-23T10:35:28.633Z,96798.80
2017-11-23T10:37:56.335Z,96798.06
2017-11-23T10:40:23.895Z,96801.13
2017-11-23T10:42:51.411Z,96795.55
2017-11-23T10:45:19.888Z,96790.76
2017-11-23T10:47:53.158Z,96777.61
2017-11-23T10:50:21.077Z,96780.20
2017-11-23T10:52:48.651Z,96785.54
2017-11-23T10:55:16.164Z,96784.37
2017-11-23T10:57:43.774Z,96786.05
2017-11-23T11:00:11.361Z,96790.03
2017-11-23T11:02:39.000Z,96793.95
2017-11-23T11:05:06.560Z,96786.95
2017-11-23T11:07:34.075Z,96786.67
2017-11-23T11:10:01.619Z,96786.23
2017-11-23T11:12:29.224Z,96788.88
2017-11-23T11:14:56.831Z,96792.70
2017-11-23T11:17:24.345Z,96788.27
2017-11-23T11:19:52.331Z,96789.69
2017-11-23T11:22:19.871Z,96785.56
2017-11-23T11:24:47.384Z,96781.60
2017-11-23T11:27:15.189Z,96774.11
2017-11-23T11:29:42.764Z,96776.19
2017-11-23T11:32:10.415Z,96777.53
2017-11-23T11:34:38.060Z,96770.70
2017-11-23T11:37:05.580Z,96762.78
2017-11-23T11:39:33.097Z,96769.08
2017-11-23T11:42:00.661Z,96760.06
2017-11-23T11:44:28.212Z,96762.47
2017-11-23T11:46:55.724Z,96765.34
2017-11-23T11:49:23.411Z,96766.18
2017-11-23T11:51:51.054Z,96762.02
2017-11-23T11:54:18.576Z,96766.57
2017-11-23T11:56:46.124Z,96765.61
2017-11-23T11:59:13.652Z,96767.84
2017-11-23T12:01:41.226Z,96764.87
2017-11-23T12:04:08.974Z,96766.38
2017-11-23T12:06:36.504Z,96768.58
2017-11-23T12:09:04.027Z,96758.39
2017-11-23T12:11:31.769Z,96767.33
2017-11-23T12:14:11.310Z,96773.57
2017-11-23T12:16:51.035Z,96771.80
2017-11-23T12:19:21.291Z,96774.84
2017-11-23T12:21:54.979Z,96775.63
2017-11-23T12:24:28.528Z,96771.80
2017-11-23T12:26:56.103Z,96768.14
2017-11-23T12:29:35.504Z,96773.69
2017-11-23T12:32:03.080Z,96776.28
2017-11-23T12:34:30.592Z,96774.14
2017-11-23T12:36:58.104Z,96775.20
2017-11-23T12:39:26.121Z,96771.32
2017-11-23T12:41:53.672Z,96773.96
2017-11-23T12:44:21.188Z,96769.25
2017-11-23T12:46:49.021Z,96772.74
2017-11-23T12:49:16.544Z,96767.55
2017-11-23T12:51:44.061Z,96768.61
2017-11-23T12:54:11.620Z,96768.84
2017-11-23T12:56:39.250Z,96768.38
2017-11-23T12:59:06.799Z,96766.20
2017-11-23T13:01:34.558Z,96773.78
2017-11-23T13:04:02.080Z,96770.02
2017-11-23T13:06:29.611Z,96774.14
2017-11-23T13:08:57.176Z,96775.47
2017-11-23T13:11:24.693Z,96770.16
2017-11-23T13:13:53.023Z,96781.42
2017-11-23T13:16:20.617Z,96784.30
2017-11-23T13:18:48.853Z,96786.45
2017-11-23T13:21:16.387Z,96783.17
2017-11-23T13:23:44.234Z,96784.91
2017-11-23T13:26:11.812Z,96790.92
2017-11-23T13:28:39.389Z,96791.02
2017-11-23T13:31:10.331Z,96795.37
2017-11-23T13:33:38.831Z,96799.13
2017-11-23T13:36:06.433Z,96804.45
2017-11-23T13:38:34.401Z,96799.61
2017-11-23T13:41:01.964Z,96800.56
2017-11-23T13:43:29.656Z,96802.06
2017-11-23T13:45:58.103Z,96803.23
2017-11-23T13:48:25.729Z,96801.17
2017-11-23T13:50:53.344Z,96805.06
2017-11-23T13:53:21.300Z,96815.33
2017-11-23T13:55:48.850Z,96816.42
2017-11-23T13:58:16.528Z,96818.84
2017-11-23T14:00:44.287Z,96816.39
2017-11-23T14:03:14.747Z,96817.56
2017-11-23T14:05:42.297Z,96820.24
2017-11-23T14:08:10.090Z,96806.48
2017-11-23T14:10:38.426Z,96819.94
2017-11-23T14:13:06.939Z,96818.28
2017-11-23T14:15:34.649Z,96818.28
2017-11-23T14:18:04.666Z,96816.27
2017-11-23T14:20:33.351Z,96818.52
2017-11-23T14:23:02.562Z,96828.53
2017-11-23T14:25:30.258Z,96833.43
2017-11-23T14:27:58.675Z,96826.72
2017-11-23T14:30:26.304Z,96839.84
2017-11-23T14:32:54.630Z,96842.59
2017-11-23T14:35:22.272Z,96834.30
2017-11-23T14:37:49.843Z,96831.66
2017-11-23T14:40:17.434Z,96832.06
2017-11-23T14:42:45.070Z,96837.28
2017-11-23T14:45:12.842Z,96850.27
2017-11-23T14:47:40.447Z,96840.48
2017-11-23T14:50:07.987Z,96848.59
2017-11-23T14:52:35.717Z,96845.39
2017-11-23T14:55:11.058Z,96849.66
2017-11-23T14:57:39.368Z,96859.08
2017-11-23T15:00:06.941Z,96867.09
2017-11-23T15:02:34.563Z,96870.52
2017-11-23T15:05:02.171Z,96866.08
2017-11-23T15:07:30.801Z,96875.44
2017-11-23T15:09:58.609Z,96876.80
2017-11-23T15:12:26.534Z,96883.41
2017-11-23T15:14:54.398Z,96883.36
2017-11-23T15:17:22.059Z,96882.17
2017-11-23T15:19:49.627Z,96884.21
2017-11-23T15:22:17.486Z,96889.06
2017-11-23T15:24:46.892Z,96888.86
2017-11-23T15:27:15.674Z,96894.22
2017-11-23T15:29:43.229Z,96896.33
2017-11-23T15:32:11.153Z,96898.97
2017-11-23T15:34:38.920Z,96908.24
2017-11-23T15:37:06.730Z,96906.43
2017-11-23T15:39:39.513Z,96901.81
2017-11-23T15:42:08.522Z,96907.52
2017-11-23T15:44:36.079Z,96902.80
2017-11-23T15:47:03.935Z,96905.09
2017-11-23T15:49:32.016Z,96915.58
2017-11-23T15:52:00.284Z,96911.97
2017-11-23T15:54:28.080Z,96918.88
2017-11-23T15:56:56.054Z,96918.27
2017-11-23T15:59:23.979Z,96924.02
2017-11-23T16:01:51.947Z,96924.47
2017-11-23T16:04:19.552Z,96927.21
2017-11-23T16:06:48.943Z,96932.28
2017-11-23T16:09:17.800Z,96929.94
2017-11-23T16:11:45.974Z,96928.80
2017-11-23T16:14:13.536Z,96926.63
2017-11-23T16:16:41.416Z,96929.69
2017-11-23T16:19:09.581Z,96930.88
2017-11-23T16:21:37.438Z,96919.98
2017-11-23T16:24:05.316Z,96925.12
2017-11-23T16:26:33.888Z,96926.69
2017-11-23T16:29:01.714Z,96934.31
2017-11-23T16:31:29.489Z,96929.87
2017-11-23T16:33:57.270Z,96933.75
2017-11-23T16:36:25.252Z,96931.55
2017-11-23T16:39:03.605Z,96930.41
2017-11-23T16:41:46.789Z,96928.83
2017-11-23T16:44:20.299Z,96938.91
2017-11-23T16:50:02.612Z,96945.88
2017-11-23T16:52:37.032Z,96945.58
2017-11-23T16:55:10.642Z,96941.88
2017-11-23T16:57:39.219Z,96952.97
2017-11-23T17:03:17.449Z,96960.27
2017-11-23T17:09:01.918Z,96962.09
2017-11-23T17:14:39.229Z,96955.47
2017-11-23T17:17:19.075Z,96958.98
2017-11-23T17:19:46.777Z,96963.86
2017-11-23T17:22:14.602Z,96968.74
2017-11-23T17:24:43.574Z,96974.17
2017-11-23T17:27:11.261Z,96976.31
2017-11-23T17:29:39.101Z,96971.02
2017-11-23T17:32:06.955Z,96978.80
2017-11-23T17:34:34.768Z,96974.13
2017-11-23T17:37:02.748Z,96978.21
2017-11-23T17:39:30.598Z,96982.28
2017-11-23T17:41:58.966Z,96980.36
2017-11-23T17:44:26.799Z,96986.91
2017-11-23T17:46:54.863Z,96991.20
2017-11-23T17:49:22.595Z,96987.73
2017-11-23T17:51:50.279Z,96995.42
2017-11-23T17:54:18.094Z,96992.88
2017-11-23T17:56:45.966Z,96998.70
2017-11-23T17:59:14.196Z,97003.66
2017-11-23T18:01:42.425Z,97000.17
2017-11-23T18:04:10.019Z,97007.45
2017-11-23T18:06:37.565Z,97006.06
2017-11-23T18:09:06.516Z,97006.05
2017-11-23T18:11:35.158Z,97008.39
2017-11-23T18:14:02.887Z,97002.67
2017-11-23T18:16:30.577Z,97012.11
2017-11-23T18:18:58.398Z,97009.33
2017-11-23T18:21:26.262Z,97009.62
2017-11-23T18:23:54.540Z,97012.64
2017-11-23T18:26:22.404Z,97006.97
2017-11-23T18:28:50.169Z,97006.33
2017-11-23T18:31:18.138Z,97016.16
2017-11-23T18:33:45.907Z,97016.88
2017-11-23T18:36:13.675Z,97016.02
2017-11-23T18:38:41.634Z,97018.02
2017-11-23T18:41:09.519Z,97020.62
2017-11-23T18:43:38.044Z,97016.84
2017-11-23T18:46:06.889Z,97022.38
2017-11-23T18:48:34.640Z,97024.83
2017-11-23T18:51:02.826Z,97023.65
2017-11-23T18:53:30.683Z,97024.80
2017-11-23T18:55:58.543Z,97018.39
2017-11-23T18:58:26.224Z,97020.91
2017-11-23T19:00:54.179Z,97025.04
2017-11-23T19:03:22.858Z,97028.43
2017-11-23T19:05:50.532Z,97026.20
2017-11-23T19:08:18.692Z,97032.47
2017-11-23T19:10:46.559Z,97031.25
2017-11-23T19:13:14.425Z,97025.75
2017-11-23T19:15:42.714Z,97023.95
2017-11-23T19:18:10.539Z,97033.16
2017-11-23T19:20:38.462Z,97040.84
2017-11-23T19:23:07.252Z,97042.63
2017-11-23T19:25:36.010Z,97048.81
2017-11-23T19:28:04.456Z,97039.83
2017-11-23T19:30:32.678Z,97042.13
2017-11-23T19:33:00.531Z,97048.58
2017-11-23T19:35:28.396Z,97045.48
2017-11-23T19:37:57.715Z,97050.75
2017-11-23T19:40:25.483Z,97051.30
2017-11-23T19:42:54.145Z,97053.13
2017-11-23T19:45:22.114Z,97056.09
2017-11-23T19:47:50.596Z,97053.85
2017-11-23T19:50:18.481Z,97047.20
2017-11-23T19:52:46.634Z,97049.38
2017-11-23T19:55:14.502Z,97051.48
2017-11-23T19:57:42.985Z,97049.92
2017-11-23T20:00:10.869Z,97055.23
2017-11-23T20:02:39.432Z,97055.70
2017-11-23T20:05:07.302Z,97062.02
2017-11-23T20:07:35.472Z,97071.91
2017-11-23T20:10:03.317Z,97068.19
2017-11-23T20:12:31.125Z,97073.21
2017-11-23T20:15:00.652Z,97073.28
2017-11-23T20:17:28.598Z,97071.42
2017-11-23T20:19:56.357Z,97077.31
2017-11-23T20:22:24.317Z,97075.86
2017-11-23T20:24:52.200Z,97081.06
2017-11-23T20:27:20.259Z,97073.49
2017-11-23T20:29:48.421Z,97074.08
2017-11-23T20:32:16.318Z,97070.93
2017-11-23T20:34:44.304Z,97069.63
2017-11-23T20:37:12.428Z,97068.77
2017-11-23T20:39:40.205Z,97070.59
2017-11-23T20:42:08.569Z,97063.33
2017-11-23T20:44:36.851Z,97058.98
2017-11-23T20:47:04.551Z,97053.84
2017-11-23T20:49:32.476Z,97047.45
2017-11-23T20:52:00.460Z,97059.47
2017-11-23T20:54:28.450Z,97051.05
2017-11-23T20:56:57.160Z,97052.51
2017-11-23T20:59:25.226Z,97058.05
2017-11-23T21:01:53.049Z,97057.50
2017-11-23T21:04:22.038Z,97060.76
2017-11-23T21:06:50.216Z,97054.80
2017-11-23T21:09:18.684Z,97064.55
2017-11-23T21:11:46.754Z,97068.27
2017-11-23T21:14:20.512Z,97058.95
2017-11-23T21:16:48.325Z,97059.50
2017-11-23T21:19:16.102Z,97060.06
2017-11-23T21:21:44.160Z,97053.19
2017-11-23T21:24:12.026Z,97060.06
2017-11-23T21:26:39.996Z,97058.63
2017-11-23T21:29:08.169Z,97055.95
2017-11-23T21:31:36.344Z,97065.01
2017-11-23T21:34:04.210Z,97056.75
2017-11-23T21:36:32.294Z,97065.16
2017-11-23T21:39:00.094Z,97059.99
2017-11-23T21:41:27.807Z,97059.80
2017-11-23T21:43:55.796Z,97054.94
2017-11-23T21:46:23.469Z,97049.59
2017-11-23T21:48:51.193Z,97046.22
2017-11-23T21:51:19.281Z,97061.00
2017-11-23T21:53:46.868Z,97052.26
2017-11-23T21:56:14.493Z,97057.97
2017-11-23T21:58:42.632Z,97055.77
2017-11-23T22:01:11.166Z,97053.23
2017-11-23T22:03:39.014Z,97050.45
2017-11-23T22:06:07.187Z,97058.89
2017-11-23T22:08:34.849Z,97055.06
2017-11-23T22:11:02.485Z,97054.91
2017-11-23T22:13:30.059Z,97059.56
2017-11-23T22:15:57.583Z,97058.82
2017-11-23T22:18:25.117Z,97058.56
2017-11-23T22:20:53.669Z,97060.13
2017-11-23T22:23:21.228Z,97062.09
2017-11-23T22:25:48.787Z,97063.80
2017-11-23T22:28:16.550Z,97066.24
2017-11-23T22:30:44.226Z,97074.45
2017-11-23T22:33:11.783Z,97083.08
2017-11-23T22:35:39.639Z,97067.28
2017-11-23T22:38:07.196Z,97067.05
2017-11-23T22:40:34.740Z,97076.73
2017-11-23T22:43:02.561Z,97073.22
2017-11-23T22:45:30.085Z,97073.93
2017-11-23T22:47:57.746Z,97068.97
2017-11-23T22:50:25.490Z,97070.47
2017-11-23T22:52:53.022Z,97080.26
2017-11-23T22:55:21.287Z,97075.48
2017-11-23T22:57:49.104Z,97071.67
2017-11-23T23:00:16.663Z,97077.16
2017-11-23T23:02:44.222Z,97078.67
2017-11-23T23:05:11.980Z,97083.23
2017-11-23T23:07:39.544Z,97075.80
2017-11-23T23:10:07.136Z,97083.11
2017-11-23T23:12:34.766Z,97086.16
2017-11-23T23:15:02.326Z,97076.72
2017-11-23T23:17:29.894Z,97082.69
2017-11-23T23:19:57.647Z,97074.37
2017-11-23T23:22:25.211Z,97076.87
2017-11-23T23:24:52.767Z,97071.95
2017-11-23T23:27:20.610Z,97070.69
2017-11-23T23:29:48.157Z,97066.39
2017-11-23T23:32:15.680Z,97066.34
2017-11-23T23:34:43.344Z,97070.95
2017-11-23T23:37:10.900Z,97072.77
2017-11-23T23:39:38.429Z,97074.89
2017-11-23T23:42:06.416Z,97074.63
2017-11-23T23:44:33.977Z,97070.29
2017-11-23T23:47:01.499Z,97083.48
2017-11-23T23:49:29.061Z,97082.92
2017-11-23T23:51:56.650Z,97079.83
2017-11-23T23:54:24.172Z,97085.38
2017-11-23T23:56:51.751Z,97082.86
2017-11-23T23:59:19.274Z,97083.41
